createdAt,value
2024-02-04T00:23:36.272Z,6.06
2024-02-04T00:27:06.140Z,6.02
2024-02-04T00:30:38.022Z,6.06
2024-02-04T00:34:08.274Z,6.16
2024-02-04T00:38:07.560Z,6.22
2024-02-04T00:41:12.397Z,6.24
2024-02-04T00:45:09.040Z,6.16
2024-02-04T00:48:40.649Z,6.00
2024-02-04T00:52:12.537Z,6.07
2024-02-04T00:59:43.979Z,6.06
2024-02-04T01:03:16.518Z,6.01
2024-02-04T01:10:55.233Z,5.99
2024-02-04T01:14:45.912Z,6.15
2024-02-04T01:18:40.792Z,6.20
2024-02-04T01:26:32.574Z,6.03
2024-02-04T01:30:56.303Z,5.89
2024-02-04T01:38:19.554Z,5.77
2024-02-04T01:45:46.581Z,5.81
2024-02-04T01:48:59.923Z,5.90
2024-02-04T01:52:28.019Z,6.09
2024-02-04T02:06:21.504Z,6.28
2024-02-04T02:10:06.014Z,6.23
2024-02-04T02:17:59.275Z,6.09
2024-02-04T02:21:48.779Z,6.16
2024-02-04T02:25:18.086Z,6.15
2024-02-04T02:28:41.497Z,6.02
2024-02-04T02:32:05.512Z,5.83
2024-02-04T02:35:20.448Z,5.74
2024-02-04T02:38:55.549Z,5.41
2024-02-04T02:46:05.367Z,5.33
2024-02-04T03:08:59.185Z,4.93
2024-02-04T03:12:31.978Z,4.69
2024-02-04T03:16:08.077Z,4.52
2024-02-04T03:24:20.064Z,5.36
2024-02-04T03:27:45.024Z,5.52
2024-02-04T03:31:39.632Z,5.78
2024-02-04T03:35:15.060Z,5.85
2024-02-04T03:43:19.846Z,6.04
2024-02-04T03:46:54.450Z,6.07
2024-02-04T03:50:16.412Z,6.00
2024-02-04T03:57:50.390Z,5.71
2024-02-04T04:13:27.834Z,5.53
2024-02-04T04:16:38.680Z,5.45
2024-02-04T04:20:37.119Z,5.34
2024-02-04T04:24:22.372Z,5.07
2024-02-04T04:28:30.487Z,4.79
2024-02-04T04:45:24.687Z,4.46
2024-02-04T04:48:58.047Z,4.50
2024-02-04T04:52:35.130Z,4.49
2024-02-04T04:56:07.083Z,4.48
2024-02-04T05:04:15.406Z,4.63
2024-02-04T05:12:32.407Z,4.58
2024-02-04T05:16:43.101Z,4.51
2024-02-04T05:24:47.448Z,4.51
2024-02-04T05:28:31.998Z,4.55
2024-02-04T05:32:04.513Z,4.59
2024-02-04T05:35:28.926Z,4.54
2024-02-04T05:38:58.321Z,4.56
2024-02-04T05:42:42.746Z,4.53
2024-02-04T05:46:38.052Z,4.45
2024-02-04T05:50:29.863Z,4.35
2024-02-04T05:53:56.740Z,4.33
2024-02-04T05:58:17.880Z,4.29
2024-02-04T06:02:17.174Z,4.33
2024-02-04T06:10:02.896Z,4.38
2024-02-04T06:13:33.393Z,4.37
2024-02-04T06:17:21.369Z,4.36
2024-02-04T06:20:29.759Z,4.39
2024-02-04T06:24:35.604Z,4.42
2024-02-04T06:28:10.595Z,4.44
2024-02-04T06:31:44.354Z,4.46
2024-02-04T06:34:59.646Z,4.48
2024-02-04T06:38:53.390Z,4.49
2024-02-04T06:46:45.009Z,4.46
2024-02-04T06:58:31.602Z,4.48
2024-02-04T07:18:45.964Z,4.58
2024-02-04T07:29:44.476Z,4.62
2024-02-04T08:03:37.263Z,4.83
2024-02-04T08:06:43.528Z,4.84
2024-02-04T08:10:11.424Z,4.82
2024-02-04T08:13:24.847Z,4.78
2024-02-04T08:16:53.774Z,4.79
2024-02-04T08:20:10.319Z,4.82
2024-02-04T08:23:41.135Z,4.85
2024-02-04T08:31:04.236Z,4.86
2024-02-04T08:34:27.307Z,4.89
2024-02-04T08:37:45.390Z,4.94
2024-02-04T08:41:00.630Z,4.97
2024-02-04T08:44:22.992Z,4.99
2024-02-04T08:47:46.862Z,4.98
2024-02-04T08:50:57.854Z,4.99
2024-02-04T08:54:34.689Z,5.01
2024-02-04T08:57:50.546Z,5.03
2024-02-04T09:01:14.361Z,5.03
2024-02-04T09:04:43.374Z,5.04
2024-02-04T09:12:07.357Z,5.05
2024-02-04T09:22:19.379Z,5.15
2024-02-04T09:25:40.464Z,5.17
2024-02-04T09:32:04.095Z,5.24
2024-02-04T09:34:56.731Z,5.29
2024-02-04T09:38:18.575Z,5.33
2024-02-04T09:41:32.309Z,5.33
2024-02-04T09:45:00.718Z,5.29
2024-02-04T09:48:10.238Z,5.26
2024-02-04T09:51:27.033Z,5.25
2024-02-04T09:54:33.388Z,5.22
2024-02-04T09:57:46.694Z,5.22
2024-02-04T10:01:04.004Z,5.26
2024-02-04T10:04:24.887Z,5.31
2024-02-04T10:07:44.719Z,5.37
2024-02-04T10:10:38.963Z,5.39
2024-02-04T10:13:40.184Z,5.42
2024-02-04T10:16:44.391Z,5.48
2024-02-04T10:19:53.661Z,5.59
2024-02-04T10:23:04.794Z,5.63
2024-02-04T10:25:34.084Z,5.66
2024-02-04T10:28:19.892Z,5.68
2024-02-04T10:31:02.818Z,5.74
2024-02-04T10:34:14.859Z,5.79
2024-02-04T10:37:05.374Z,5.82
2024-02-04T10:39:51.925Z,5.85
2024-02-04T10:43:12.482Z,5.86
2024-02-04T10:45:44.414Z,5.87
2024-02-04T10:48:19.361Z,5.87
2024-02-04T10:51:40.839Z,5.87
2024-02-04T10:54:13.021Z,5.90
2024-02-04T10:57:16.073Z,5.92
2024-02-04T11:00:14.111Z,5.93
2024-02-04T11:03:23.875Z,5.93
2024-02-04T11:06:28.171Z,5.96
2024-02-04T11:09:11.758Z,5.96
2024-02-04T11:12:27.704Z,5.94
2024-02-04T11:15:50.233Z,5.96
2024-02-04T11:19:29.643Z,5.96
2024-02-04T11:22:57.503Z,5.99
2024-02-04T11:26:07.619Z,6.05
2024-02-04T11:29:37.601Z,6.11
2024-02-04T11:32:53.431Z,6.11
2024-02-04T11:36:06.393Z,6.08
2024-02-04T11:39:19.543Z,6.08
2024-02-04T11:42:35.865Z,6.08
2024-02-04T11:45:39.058Z,6.10
2024-02-04T11:49:11.656Z,6.15
2024-02-04T11:52:20.965Z,6.18
2024-02-04T11:55:28.228Z,6.20
2024-02-04T11:58:50.411Z,6.20
2024-02-04T12:02:03.558Z,6.19
2024-02-04T12:04:53.825Z,6.13
2024-02-04T12:07:41.766Z,6.13
2024-02-04T12:10:25.212Z,6.12
2024-02-04T12:13:06.000Z,6.07
2024-02-04T12:15:38.788Z,6.05
2024-02-04T12:18:08.911Z,6.06
2024-02-04T12:21:06.043Z,6.07
2024-02-04T12:23:35.733Z,6.08
2024-02-04T12:26:46.941Z,6.10
2024-02-04T12:29:26.051Z,6.11
2024-02-04T12:32:02.455Z,6.14
2024-02-04T12:35:32.696Z,6.19
2024-02-04T12:39:03.352Z,6.25
2024-02-04T12:42:01.674Z,6.31
2024-02-04T12:44:40.943Z,6.33
2024-02-04T12:47:42.948Z,6.35
2024-02-04T12:51:08.573Z,6.38
2024-02-04T12:54:47.126Z,6.40
2024-02-04T12:58:01.289Z,6.39
2024-02-04T13:01:11.768Z,6.39
2024-02-04T13:04:03.506Z,6.40
2024-02-04T13:06:47.235Z,6.40
2024-02-04T13:09:26.665Z,6.36
2024-02-04T13:12:41.311Z,6.32
2024-02-04T13:16:09.852Z,6.30
2024-02-04T13:19:36.432Z,6.28
2024-02-04T13:23:00.385Z,6.26
2024-02-04T13:26:29.594Z,6.25
2024-02-04T13:29:52.292Z,6.25
2024-02-04T13:33:16.546Z,6.23
2024-02-04T13:36:40.790Z,6.22
2024-02-04T13:39:56.298Z,6.21
2024-02-04T13:42:56.444Z,6.23
2024-02-04T13:46:17.318Z,6.23
2024-02-04T13:49:15.339Z,6.23
2024-02-04T13:52:22.085Z,6.19
2024-02-04T13:55:16.626Z,6.21
2024-02-04T13:58:01.910Z,6.21
2024-02-04T14:04:35.676Z,6.19
2024-02-04T14:07:38.652Z,6.17
2024-02-04T14:10:53.444Z,6.16
2024-02-04T14:13:52.917Z,6.13
2024-02-04T14:16:48.137Z,6.13
2024-02-04T14:19:57.827Z,6.13
2024-02-04T14:23:04.003Z,6.13
2024-02-04T14:26:10.968Z,6.17
2024-02-04T14:29:32.520Z,6.19
2024-02-04T14:32:36.177Z,6.17
2024-02-04T14:35:40.832Z,6.13
2024-02-04T14:38:41.980Z,6.13
2024-02-04T14:41:31.203Z,6.13
2024-02-04T14:44:39.893Z,6.16
2024-02-04T14:48:44.073Z,6.17
2024-02-04T14:52:35.856Z,6.12
2024-02-04T14:56:34.872Z,6.12
2024-02-04T15:00:04.327Z,6.14
2024-02-04T15:03:34.072Z,6.12
2024-02-04T15:06:55.900Z,6.13
2024-02-04T15:10:29.171Z,6.12
2024-02-04T15:13:58.979Z,6.08
2024-02-04T15:17:14.960Z,6.06
2024-02-04T15:20:19.706Z,6.04
2024-02-04T15:23:43.242Z,6.02
2024-02-04T15:27:11.129Z,5.99
2024-02-04T15:30:48.151Z,5.98
2024-02-04T15:37:58.862Z,5.99
2024-02-04T15:41:21.717Z,5.99
2024-02-04T15:44:51.727Z,6.01
2024-02-04T15:47:56.321Z,6.06
2024-02-04T15:51:26.407Z,6.03
2024-02-04T15:54:51.910Z,5.99
2024-02-04T15:58:27.090Z,6.02
2024-02-04T16:06:15.526Z,6.05
2024-02-04T16:09:44.343Z,6.03
2024-02-04T16:13:14.884Z,5.97
2024-02-04T16:16:48.722Z,6.00
2024-02-04T17:23:15.851Z,5.73
2024-02-04T17:26:46.420Z,5.68
2024-02-04T17:30:21.553Z,5.63
2024-02-04T17:33:52.680Z,5.65
2024-02-04T17:37:24.478Z,5.59
2024-02-04T17:40:58.209Z,5.59
2024-02-04T18:17:13.721Z,5.64
2024-02-04T18:21:09.888Z,5.59
2024-02-04T18:24:31.511Z,5.67
2024-02-04T18:28:04.726Z,5.66
2024-02-04T18:31:29.139Z,5.63
2024-02-04T18:38:20.229Z,5.59
2024-02-04T18:41:49.730Z,5.61
2024-02-04T18:45:24.775Z,5.56
2024-02-04T18:49:04.301Z,5.50
2024-02-04T19:18:35.420Z,5.58
2024-02-04T19:22:11.660Z,5.72
2024-02-04T19:25:42.275Z,5.70
2024-02-04T19:29:15.791Z,5.66
2024-02-04T19:32:46.443Z,5.79
2024-02-04T19:36:14.822Z,5.84
2024-02-04T19:39:47.185Z,5.84
2024-02-04T19:43:17.260Z,5.88
2024-02-04T19:54:37.257Z,6.04
2024-02-04T20:08:20.476Z,6.09
2024-02-04T20:14:42.656Z,6.03
2024-02-04T20:32:07.915Z,6.16
2024-02-04T20:35:32.065Z,6.22
2024-02-04T20:39:03.044Z,6.25
2024-02-04T20:42:19.217Z,6.19
2024-02-04T20:45:37.565Z,6.31
2024-02-04T20:49:09.835Z,6.36
2024-02-04T20:52:24.162Z,6.27
2024-02-04T20:55:58.238Z,6.27
2024-02-04T20:59:15.848Z,6.28
2024-02-04T21:07:22.774Z,6.22
2024-02-04T21:18:19.784Z,6.10
2024-02-04T21:21:49.564Z,6.07
2024-02-04T21:25:07.633Z,6.04
2024-02-04T21:28:41.145Z,5.99
2024-02-04T21:36:17.353Z,6.03
2024-02-04T21:39:48.097Z,6.12
2024-02-04T21:43:10.470Z,6.14
2024-02-04T21:50:52.844Z,6.12
2024-02-04T21:54:26.832Z,6.04
2024-02-04T21:58:02.864Z,5.99
2024-02-04T22:01:09.257Z,5.96
2024-02-04T22:18:01.580Z,6.01
2024-02-04T22:21:27.244Z,5.94
2024-02-04T22:24:56.383Z,6.02
2024-02-04T22:31:47.275Z,6.09
2024-02-04T22:38:51.872Z,5.99
2024-02-04T22:42:22.844Z,6.10
2024-02-04T22:45:46.072Z,6.13
2024-02-04T22:49:03.654Z,6.14
2024-02-04T22:52:24.767Z,6.13
2024-02-04T22:59:18.661Z,6.06
2024-02-04T23:02:45.516Z,5.94
2024-02-04T23:06:07.550Z,5.97
2024-02-04T23:09:30.482Z,6.03
2024-02-04T23:13:00.085Z,6.03
2024-02-04T23:16:29.489Z,6.05
2024-02-04T23:20:01.743Z,6.04
2024-02-04T23:23:26.387Z,6.03
2024-02-04T23:26:57.862Z,6.07
2024-02-04T23:30:32.770Z,6.02
2024-02-04T23:33:48.770Z,6.08
2024-02-04T23:41:54.957Z,6.27
2024-02-04T23:45:23.808Z,6.26
2024-02-04T23:48:57.158Z,6.31
2024-02-04T23:52:12.784Z,6.25
2024-02-04T23:55:35.050Z,6.28
2024-02-04T23:59:02.775Z,6.57
